createdAt,value
2018-11-07T00:02:21.610Z,26.87
2018-11-07T00:04:51.789Z,29.23
2018-11-07T00:07:21.936Z,22.93
2018-11-07T00:10:08.912Z,26.37
2018-11-07T00:12:39.273Z,30.25
2018-11-07T00:15:12.625Z,29.27
2018-11-07T00:17:42.958Z,24.85
2018-11-07T00:20:13.629Z,26.10
2018-11-07T00:22:43.744Z,28.05
2018-11-07T00:25:13.917Z,27.80
2018-11-07T00:27:44.087Z,36.15
2018-11-07T00:30:14.320Z,29.23
2018-11-07T00:32:44.423Z,27.60
2018-11-07T00:35:14.546Z,27.75
2018-11-07T00:37:44.630Z,32.17
2018-11-07T00:40:14.816Z,28.30
2018-11-07T00:42:44.915Z,25.80
2018-11-07T00:45:15.022Z,26.77
2018-11-07T00:47:45.162Z,25.25
2018-11-07T00:50:17.545Z,26.60
2018-11-07T00:52:47.717Z,26.23
2018-11-07T00:55:17.869Z,32.15
2018-11-07T00:57:48.037Z,25.82
2018-11-07T01:00:19.374Z,23.73
2018-11-07T01:02:50.083Z,27.98
2018-11-07T01:05:20.259Z,26.30
2018-11-07T01:07:50.435Z,24.27
2018-11-07T01:10:20.539Z,25.32
2018-11-07T01:12:50.675Z,28.27
2018-11-07T01:15:20.822Z,27.48
2018-11-07T01:17:50.951Z,28.17
2018-11-07T01:20:21.123Z,26.48
2018-11-07T01:22:51.266Z,24.30
2018-11-07T01:25:21.371Z,23.47
2018-11-07T01:27:51.573Z,29.55
2018-11-07T01:30:22.543Z,24.63
2018-11-07T01:32:52.717Z,23.42
2018-11-07T01:35:22.874Z,28.25
2018-11-07T01:37:52.964Z,31.87
2018-11-07T01:40:23.078Z,25.95
2018-11-07T01:42:53.290Z,21.15
2018-11-07T01:45:23.466Z,30.48
2018-11-07T01:47:53.595Z,26.62
2018-11-07T01:50:23.761Z,27.30
2018-11-07T01:52:53.867Z,23.85
2018-11-07T01:55:24.003Z,23.07
2018-11-07T01:57:54.082Z,28.32
2018-11-07T02:00:24.218Z,21.25
2018-11-07T02:02:54.335Z,22.45
2018-11-07T02:05:24.442Z,23.25
2018-11-07T02:07:54.551Z,22.82
2018-11-07T02:10:24.731Z,26.07
2018-11-07T02:12:54.855Z,27.93
2018-11-07T02:15:25.046Z,25.75
2018-11-07T02:17:55.183Z,26.40
2018-11-07T02:20:25.406Z,21.17
2018-11-07T02:22:55.570Z,23.10
2018-11-07T02:25:25.706Z,27.27
2018-11-07T02:27:55.788Z,25.12
2018-11-07T02:30:26.056Z,23.30
2018-11-07T02:32:56.167Z,25.30
2018-11-07T02:35:26.435Z,31.07
2018-11-07T02:37:56.524Z,25.27
2018-11-07T02:40:26.620Z,28.42
2018-11-07T02:42:56.805Z,23.47
2018-11-07T02:45:26.924Z,23.77
2018-11-07T02:47:57.176Z,21.50
2018-11-07T02:50:27.568Z,23.57
2018-11-07T02:52:57.665Z,23.32
2018-11-07T02:55:27.914Z,22.95
2018-11-07T02:57:58.979Z,26.93
2018-11-07T03:00:29.102Z,21.30
2018-11-07T03:02:59.267Z,23.15
2018-11-07T03:05:29.400Z,22.50
2018-11-07T03:08:00.293Z,21.00
2018-11-07T03:10:30.441Z,18.77
2018-11-07T03:13:00.611Z,21.97
2018-11-07T03:15:30.735Z,21.68
2018-11-07T03:18:00.840Z,23.25
2018-11-07T03:20:31.000Z,30.17
2018-11-07T03:23:01.312Z,21.85
2018-11-07T03:25:31.424Z,22.87
2018-11-07T03:28:01.599Z,24.90
2018-11-07T03:33:48.636Z,20.72
2018-11-07T03:36:18.766Z,21.85
2018-11-07T03:38:48.990Z,19.90
2018-11-07T03:41:19.611Z,23.30
2018-11-07T03:43:49.832Z,20.12
2018-11-07T03:46:19.984Z,21.20
2018-11-07T03:48:50.176Z,18.45
2018-11-07T03:51:20.364Z,17.95
2018-11-07T03:53:50.928Z,21.55
2018-11-07T03:56:21.221Z,17.17
2018-11-07T03:58:51.331Z,17.48
2018-11-07T04:01:21.580Z,19.77
2018-11-07T04:03:51.696Z,21.40
2018-11-07T04:06:21.826Z,18.92
2018-11-07T04:08:52.011Z,20.35
2018-11-07T04:11:22.171Z,18.73
2018-11-07T04:13:52.483Z,21.95
2018-11-07T04:16:22.576Z,17.17
2018-11-07T04:18:52.837Z,20.27
2018-11-07T04:21:23.020Z,23.77
2018-11-07T04:24:07.763Z,20.20
2018-11-07T04:26:38.580Z,19.95
2018-11-07T04:29:08.727Z,16.93
2018-11-07T04:31:38.934Z,16.57
2018-11-07T04:34:09.138Z,14.60
2018-11-07T04:36:39.298Z,13.65
2018-11-07T04:39:10.348Z,21.95
2018-11-07T04:41:40.462Z,17.62
2018-11-07T04:44:10.600Z,20.55
2018-11-07T04:46:40.821Z,15.18
2018-11-07T04:49:11.046Z,16.48
2018-11-07T04:51:41.290Z,17.50
2018-11-07T04:54:11.467Z,17.52
2018-11-07T04:56:41.640Z,19.10
2018-11-07T04:59:11.842Z,27.07
2018-11-07T05:01:42.290Z,19.12
2018-11-07T05:04:12.513Z,21.90
2018-11-07T05:06:42.653Z,30.82
2018-11-07T05:09:12.808Z,20.08
2018-11-07T05:11:44.897Z,21.45
2018-11-07T05:14:15.174Z,24.72
2018-11-07T05:16:45.469Z,19.17
2018-11-07T05:19:15.776Z,21.37
2018-11-07T05:21:45.939Z,29.32
2018-11-07T05:24:16.221Z,23.65
2018-11-07T05:26:46.405Z,26.35
2018-11-07T05:29:16.685Z,21.68
2018-11-07T05:31:46.946Z,29.92
2018-11-07T05:34:17.053Z,22.02
2018-11-07T05:36:47.263Z,19.73
2018-11-07T05:39:18.579Z,20.55
2018-11-07T05:41:48.950Z,23.12
2018-11-07T05:44:19.162Z,22.15
2018-11-07T05:46:50.261Z,30.08
2018-11-07T05:49:33.067Z,26.15
2018-11-07T05:52:06.074Z,25.75
2018-11-07T05:54:36.375Z,22.52
2018-11-07T05:57:07.969Z,26.23
2018-11-07T05:59:38.145Z,29.07
2018-11-07T06:02:08.344Z,20.70
2018-11-07T06:04:38.549Z,24.43
2018-11-07T06:07:08.818Z,24.50
2018-11-07T06:09:39.022Z,23.07
2018-11-07T06:12:09.167Z,27.90
2018-11-07T06:14:39.365Z,25.48
2018-11-07T06:17:10.226Z,23.77
2018-11-07T06:19:40.520Z,30.57
2018-11-07T06:22:10.879Z,32.28
2018-11-07T06:24:41.149Z,30.52
2018-11-07T06:27:11.358Z,27.50
2018-11-07T06:29:41.509Z,25.27
2018-11-07T06:32:12.215Z,23.05
2018-11-07T06:34:42.439Z,23.55
2018-11-07T06:37:12.553Z,32.50
2018-11-07T06:39:42.706Z,24.43
2018-11-07T06:42:12.898Z,24.65
2018-11-07T06:44:43.136Z,26.02
2018-11-07T06:47:13.295Z,26.00
2018-11-07T06:49:43.499Z,31.65
2018-11-07T06:52:14.708Z,24.70
2018-11-07T06:54:44.849Z,22.27
2018-11-07T06:57:14.965Z,25.43
2018-11-07T06:59:46.005Z,25.08
2018-11-07T07:02:16.232Z,22.90
2018-11-07T07:04:46.416Z,26.00
2018-11-07T07:07:16.638Z,24.23
2018-11-07T07:09:46.830Z,23.85
2018-11-07T07:12:17.833Z,25.75
2018-11-07T07:14:48.004Z,23.52
2018-11-07T07:17:18.234Z,26.82
2018-11-07T07:19:48.450Z,20.82
2018-11-07T07:22:18.674Z,22.27
2018-11-07T07:27:32.683Z,21.02
2018-11-07T07:30:03.025Z,22.30
2018-11-07T07:32:33.361Z,22.67
2018-11-07T07:35:04.077Z,28.35
2018-11-07T07:37:34.294Z,28.05
2018-11-07T07:40:05.052Z,29.35
2018-11-07T07:42:35.289Z,28.62
2018-11-07T07:45:07.865Z,28.95
2018-11-07T07:47:38.556Z,27.93
2018-11-07T07:50:11.819Z,35.10
2018-11-07T07:52:42.696Z,25.97
2018-11-07T07:55:12.951Z,29.95
2018-11-07T07:57:43.548Z,32.40
2018-11-07T08:00:15.633Z,26.52
2018-11-07T08:02:48.170Z,24.82
2018-11-07T08:05:18.414Z,30.52
2018-11-07T08:07:48.961Z,32.00
2018-11-07T08:10:21.266Z,23.22
2018-11-07T08:12:52.271Z,25.65
2018-11-07T08:15:22.432Z,23.25
2018-11-07T08:17:52.705Z,26.70
2018-11-07T08:20:22.820Z,26.57
2018-11-07T08:22:52.956Z,30.30
2018-11-07T08:25:23.181Z,25.50
2018-11-07T08:27:53.879Z,24.52
2018-11-07T08:30:24.093Z,22.05
2018-11-07T08:32:54.256Z,23.42
2018-11-07T08:35:24.488Z,27.98
2018-11-07T08:37:54.607Z,22.95
2018-11-07T08:40:24.962Z,27.02
2018-11-07T08:42:55.186Z,23.12
2018-11-07T08:45:25.415Z,20.97
2018-11-07T08:47:55.734Z,22.30
2018-11-07T08:50:25.847Z,22.50
2018-11-07T08:52:55.983Z,27.17
2018-11-07T08:55:26.850Z,24.57
2018-11-07T08:57:57.543Z,21.12
2018-11-07T09:00:27.767Z,23.22
2018-11-07T09:02:57.909Z,21.05
2018-11-07T09:05:28.069Z,22.93
2018-11-07T09:07:58.250Z,21.42
2018-11-07T09:10:29.611Z,24.75
2018-11-07T09:12:59.811Z,21.00
2018-11-07T09:15:30.039Z,23.40
2018-11-07T09:18:00.332Z,23.15
2018-11-07T09:20:30.669Z,19.42
2018-11-07T09:23:01.118Z,23.62
2018-11-07T09:25:31.277Z,23.10
2018-11-07T09:28:01.573Z,22.77
2018-11-07T09:30:31.831Z,19.17
2018-11-07T09:33:02.140Z,20.20
2018-11-07T09:35:32.348Z,21.95
2018-11-07T09:38:02.601Z,18.23
2018-11-07T09:40:32.739Z,18.52
2018-11-07T09:43:02.959Z,18.32
2018-11-07T09:45:33.299Z,18.27
2018-11-07T09:48:03.534Z,13.98
2018-11-07T09:50:33.751Z,18.05
2018-11-07T09:53:03.961Z,18.07
2018-11-07T09:55:34.119Z,22.58
2018-11-07T09:58:04.467Z,20.88
2018-11-07T10:00:34.657Z,18.90
2018-11-07T10:03:04.872Z,19.35
2018-11-07T10:05:35.094Z,21.60
2018-11-07T10:08:05.730Z,18.95
2018-11-07T10:10:35.937Z,15.83
2018-11-07T10:13:06.156Z,16.10
2018-11-07T10:15:36.383Z,22.07
2018-11-07T10:18:06.685Z,19.65
2018-11-07T10:20:37.015Z,17.23
2018-11-07T10:23:07.286Z,14.63
2018-11-07T10:25:37.442Z,22.62
2018-11-07T10:28:08.204Z,19.17
2018-11-07T10:30:37.941Z,20.12
2018-11-07T10:33:08.180Z,12.75
2018-11-07T10:35:38.428Z,18.23
2018-11-07T10:38:08.719Z,50.63
2018-11-07T10:40:39.797Z,12.47
2018-11-07T10:43:10.426Z,11.75
2018-11-07T10:45:40.861Z,16.25
2018-11-07T10:48:11.823Z,17.48
2018-11-07T10:50:42.122Z,14.40
2018-11-07T10:53:13.028Z,17.67
2018-11-07T10:55:45.755Z,16.95
2018-11-07T10:58:15.928Z,12.45
2018-11-07T11:00:51.383Z,14.35
2018-11-07T11:03:26.710Z,13.88
2018-11-07T11:05:57.095Z,15.85
2018-11-07T11:08:27.472Z,10.58
2018-11-07T11:10:57.795Z,10.45
2018-11-07T11:13:28.175Z,12.50
2018-11-07T11:15:58.369Z,11.45
2018-11-07T11:18:28.606Z,7.90
2018-11-07T11:20:58.946Z,7.50
2018-11-07T11:23:29.286Z,11.12
2018-11-07T11:26:00.602Z,9.48
2018-11-07T11:28:30.828Z,11.15
2018-11-07T11:31:01.166Z,12.28
2018-11-07T11:33:31.477Z,7.22
2018-11-07T11:36:01.791Z,8.58
2018-11-07T11:38:32.012Z,12.82
2018-11-07T11:41:02.446Z,8.63
2018-11-07T11:43:32.638Z,11.70
2018-11-07T11:46:02.982Z,11.03
2018-11-07T11:48:33.314Z,11.55
2018-11-07T11:51:03.567Z,10.03
2018-11-07T11:53:33.918Z,8.55
2018-11-07T11:56:04.069Z,8.55
2018-11-07T11:58:34.413Z,11.33
2018-11-07T12:01:04.780Z,9.30
2018-11-07T12:03:34.967Z,10.28
2018-11-07T12:06:05.598Z,11.18
2018-11-07T12:08:35.819Z,11.93
2018-11-07T12:11:05.989Z,11.48
2018-11-07T12:13:36.196Z,9.30
2018-11-07T12:16:06.363Z,8.45
2018-11-07T12:18:36.503Z,7.10
2018-11-07T12:21:07.760Z,10.20
2018-11-07T12:23:38.918Z,11.12
2018-11-07T12:26:09.127Z,11.18
2018-11-07T12:28:39.267Z,14.73
2018-11-07T12:31:09.557Z,8.58
2018-11-07T12:33:39.719Z,16.52
2018-11-07T12:36:09.898Z,7.92
2018-11-07T12:38:40.135Z,4.97
2018-11-07T12:41:10.536Z,5.87
2018-11-07T12:43:40.777Z,8.85
2018-11-07T12:46:10.944Z,3.58
2018-11-07T12:48:41.123Z,3.67
2018-11-07T12:51:11.356Z,3.35
2018-11-07T12:53:42.439Z,3.50
2018-11-07T12:56:12.581Z,8.65
2018-11-07T12:58:43.832Z,4.70
2018-11-07T13:01:14.010Z,4.20
2018-11-07T13:03:44.165Z,4.10
2018-11-07T13:06:14.440Z,5.60
2018-11-07T13:08:44.700Z,5.10
2018-11-07T13:11:14.919Z,4.05
2018-11-07T13:13:45.091Z,4.87
2018-11-07T13:16:15.209Z,3.40
2018-11-07T13:18:45.440Z,3.37
2018-11-07T13:21:15.599Z,3.95
2018-11-07T13:23:45.750Z,4.85
2018-11-07T13:26:15.896Z,6.67
2018-11-07T13:28:46.141Z,6.55
2018-11-07T13:31:16.278Z,6.35
2018-11-07T13:33:46.477Z,7.15
2018-11-07T13:36:16.651Z,2.85
2018-11-07T13:38:48.077Z,3.95
2018-11-07T13:41:17.944Z,3.40
2018-11-07T13:43:48.131Z,3.35
2018-11-07T13:46:18.289Z,8.48
2018-11-07T13:48:48.520Z,3.75
2018-11-07T13:51:18.608Z,4.92
2018-11-07T13:53:48.850Z,4.95
2018-11-07T13:56:19.000Z,4.00
2018-11-07T13:58:49.267Z,3.72
2018-11-07T14:01:19.522Z,8.35
2018-11-07T14:03:50.067Z,3.00
2018-11-07T14:06:20.510Z,4.22
2018-11-07T14:08:50.801Z,4.80
2018-11-07T14:11:21.219Z,6.60
2018-11-07T14:13:51.454Z,5.12
2018-11-07T14:16:21.869Z,4.28
2018-11-07T14:18:52.921Z,6.12
2018-11-07T14:21:23.189Z,4.72
2018-11-07T14:23:53.349Z,6.08
2018-11-07T14:26:23.472Z,4.65
2018-11-07T14:28:53.671Z,6.15
2018-11-07T14:31:24.782Z,11.33
2018-11-07T14:33:55.157Z,5.55
2018-11-07T14:36:25.248Z,6.45
2018-11-07T14:38:55.394Z,5.33
2018-11-07T14:41:25.743Z,9.53
2018-11-07T14:43:55.897Z,6.08
2018-11-07T14:46:26.032Z,8.93
2018-11-07T14:48:56.169Z,12.50
2018-11-07T14:51:26.355Z,9.18
2018-11-07T14:53:56.505Z,6.20
2018-11-07T14:56:26.661Z,7.05
2018-11-07T14:58:56.831Z,11.40
2018-11-07T15:01:28.262Z,7.53
2018-11-07T15:03:58.378Z,8.78
2018-11-07T15:06:28.525Z,12.18
2018-11-07T15:08:58.714Z,6.70
2018-11-07T15:11:29.038Z,5.70
2018-11-07T15:13:59.630Z,10.90
2018-11-07T15:16:29.829Z,8.55
2018-11-07T15:18:59.935Z,6.50
2018-11-07T15:21:30.208Z,6.22
2018-11-07T15:24:00.424Z,5.03
2018-11-07T15:26:30.913Z,4.45
2018-11-07T15:29:02.419Z,6.15
2018-11-07T15:31:32.640Z,6.67
2018-11-07T15:34:02.857Z,4.80
2018-11-07T15:36:33.184Z,6.65
2018-11-07T15:39:03.392Z,5.90
2018-11-07T15:41:33.504Z,7.47
2018-11-07T15:44:03.728Z,7.40
2018-11-07T15:46:33.909Z,9.88
2018-11-07T15:49:04.024Z,5.55
2018-11-07T15:51:35.369Z,7.70
2018-11-07T15:54:06.346Z,12.00
2018-11-07T15:56:36.830Z,8.58
2018-11-07T15:59:07.019Z,12.18
2018-11-07T16:01:37.091Z,13.60
2018-11-07T16:04:07.290Z,11.45
2018-11-07T16:06:37.527Z,8.63
2018-11-07T16:09:10.331Z,7.12
2018-11-07T16:11:40.474Z,9.90
2018-11-07T16:14:10.646Z,14.33
2018-11-07T16:16:40.846Z,20.60
2018-11-07T16:19:11.057Z,16.20
2018-11-07T16:21:41.332Z,14.68
2018-11-07T16:24:12.126Z,11.43
2018-11-07T16:26:42.255Z,12.18
2018-11-07T16:29:12.613Z,11.33
2018-11-07T16:31:42.839Z,10.75
2018-11-07T16:34:13.067Z,13.08
2018-11-07T16:36:43.320Z,13.20
2018-11-07T16:39:14.058Z,19.25
2018-11-07T16:41:44.410Z,16.85
2018-11-07T16:44:14.430Z,15.88
2018-11-07T16:46:44.649Z,13.35
2018-11-07T16:49:14.824Z,12.78
2018-11-07T16:51:45.191Z,20.97
2018-11-07T16:54:20.619Z,18.48
2018-11-07T16:56:51.092Z,14.05
2018-11-07T16:59:21.304Z,17.98
2018-11-07T17:01:51.607Z,14.00
2018-11-07T17:04:22.044Z,11.48
2018-11-07T17:06:52.306Z,12.53
2018-11-07T17:09:22.572Z,10.95
2018-11-07T17:11:53.405Z,16.55
2018-11-07T17:14:23.686Z,16.37
2018-11-07T17:16:53.847Z,15.50
2018-11-07T17:19:27.052Z,14.10
2018-11-07T17:21:57.366Z,12.80
2018-11-07T17:24:27.819Z,12.37
2018-11-07T17:26:57.875Z,12.20
2018-11-07T17:29:28.037Z,11.80
2018-11-07T17:31:58.327Z,12.10
2018-11-07T17:34:28.621Z,11.45
2018-11-07T17:36:58.806Z,14.13
2018-11-07T17:39:29.205Z,12.40
2018-11-07T17:41:59.429Z,14.05
2018-11-07T17:47:13.839Z,11.73
2018-11-07T17:49:43.992Z,15.25
2018-11-07T17:52:14.249Z,13.75
2018-11-07T17:54:44.460Z,13.70
2018-11-07T17:57:14.663Z,12.82
2018-11-07T17:59:44.904Z,18.92
2018-11-07T18:02:15.084Z,23.02
2018-11-07T18:04:45.290Z,25.35
2018-11-07T18:07:15.688Z,22.22
2018-11-07T18:09:46.146Z,18.85
2018-11-07T18:12:19.455Z,21.33
2018-11-07T18:14:51.268Z,23.75
2018-11-07T18:17:21.562Z,23.60
2018-11-07T18:19:52.394Z,23.77
2018-11-07T18:22:22.598Z,22.37
2018-11-07T18:24:52.877Z,22.87
2018-11-07T18:27:23.217Z,22.85
2018-11-07T18:29:53.559Z,20.80
2018-11-07T18:32:23.892Z,15.05
2018-11-07T18:34:54.675Z,21.70
2018-11-07T18:37:24.988Z,16.75
2018-11-07T18:39:55.658Z,23.07
2018-11-07T18:42:27.167Z,21.90
2018-11-07T18:45:00.490Z,18.30
2018-11-07T18:47:30.769Z,18.87
2018-11-07T18:50:01.073Z,19.65
2018-11-07T18:52:31.345Z,17.32
2018-11-07T18:55:01.550Z,19.50
2018-11-07T18:57:31.795Z,13.93
2018-11-07T19:00:02.095Z,15.48
2018-11-07T19:02:32.299Z,16.82
2018-11-07T19:05:02.552Z,16.27
2018-11-07T19:07:32.847Z,15.45
2018-11-07T19:10:03.193Z,18.27
2018-11-07T19:12:33.567Z,18.40
2018-11-07T19:15:03.875Z,15.43
2018-11-07T19:17:34.192Z,16.00
2018-11-07T19:20:04.828Z,14.15
2018-11-07T19:22:35.270Z,13.95
2018-11-07T19:25:07.689Z,14.45
2018-11-07T19:27:38.565Z,20.00
2018-11-07T19:30:13.801Z,25.85
2018-11-07T19:32:45.257Z,21.48
2018-11-07T19:35:16.738Z,20.85
2018-11-07T19:37:47.923Z,23.20
2018-11-07T19:40:19.971Z,20.65
2018-11-07T19:42:50.232Z,20.68
2018-11-07T19:45:21.427Z,22.62
2018-11-07T19:47:52.106Z,22.93
2018-11-07T19:50:22.949Z,20.25
2018-11-07T19:52:53.978Z,21.93
2018-11-07T19:55:25.428Z,22.35
2018-11-07T19:58:00.796Z,19.82
2018-11-07T20:00:31.231Z,20.25
2018-11-07T20:03:02.263Z,24.57
2018-11-07T20:05:32.832Z,20.48
2018-11-07T20:08:03.123Z,18.87
2018-11-07T20:10:34.203Z,14.53
2018-11-07T20:13:05.597Z,18.23
2018-11-07T20:15:36.953Z,20.75
2018-11-07T20:18:08.465Z,20.72
2018-11-07T20:20:40.702Z,17.35
2018-11-07T20:23:11.250Z,15.03
2018-11-07T20:25:42.182Z,11.35
2018-11-07T20:28:13.697Z,16.27
2018-11-07T20:30:44.045Z,13.98
2018-11-07T20:33:14.620Z,18.25
2018-11-07T20:35:45.703Z,21.17
2018-11-07T20:38:16.430Z,17.62
2018-11-07T20:40:47.592Z,13.85
2018-11-07T20:43:18.227Z,17.35
2018-11-07T20:45:48.620Z,17.40
2018-11-07T20:48:19.069Z,15.75
2018-11-07T20:50:50.303Z,18.75
2018-11-07T20:53:20.748Z,15.85
2018-11-07T20:55:51.050Z,19.05
2018-11-07T20:58:21.324Z,13.38
2018-11-07T21:00:51.618Z,18.80
2018-11-07T21:03:21.841Z,18.27
2018-11-07T21:05:52.128Z,16.37
2018-11-07T21:08:22.545Z,15.38
2018-11-07T21:10:52.970Z,17.17
2018-11-07T21:13:23.164Z,14.23
2018-11-07T21:15:53.628Z,16.82
2018-11-07T21:18:24.108Z,14.00
2018-11-07T21:20:54.414Z,12.63
2018-11-07T21:23:24.723Z,13.98
2018-11-07T21:25:55.312Z,13.98
2018-11-07T21:28:25.642Z,16.17
2018-11-07T21:30:56.051Z,13.60
2018-11-07T21:33:26.304Z,13.98
2018-11-07T21:35:56.897Z,15.88
2018-11-07T21:38:27.285Z,18.32
2018-11-07T21:40:57.539Z,15.90
2018-11-07T21:43:27.830Z,13.93
2018-11-07T21:45:58.554Z,15.32
2018-11-07T21:48:30.423Z,14.47
2018-11-07T21:51:00.765Z,14.68
2018-11-07T21:53:31.016Z,16.85
2018-11-07T21:56:01.365Z,14.60
2018-11-07T21:58:31.717Z,13.43
2018-11-07T22:01:02.059Z,17.98
2018-11-07T22:03:32.433Z,12.10
2018-11-07T22:06:03.394Z,12.20
2018-11-07T22:08:33.816Z,17.73
2018-11-07T22:11:04.067Z,14.50
2018-11-07T22:13:34.855Z,18.23
2018-11-07T22:16:06.443Z,14.78
2018-11-07T22:18:38.949Z,18.40
2018-11-07T22:21:09.203Z,14.47
2018-11-07T22:23:39.958Z,15.70
2018-11-07T22:26:10.315Z,16.50
2018-11-07T22:28:40.689Z,14.43
2018-11-07T22:31:10.993Z,17.67
2018-11-07T22:33:41.663Z,14.45
2018-11-07T22:36:12.091Z,17.32
2018-11-07T22:38:42.579Z,18.02
2018-11-07T22:41:12.934Z,14.47
2018-11-07T22:43:44.032Z,19.92
2018-11-07T22:46:14.481Z,14.58
2018-11-07T22:48:44.704Z,14.60
2018-11-07T22:51:15.160Z,15.80
2018-11-07T22:53:45.363Z,17.98
2018-11-07T22:56:15.641Z,16.15
2018-11-07T22:58:46.078Z,22.93
2018-11-07T23:01:23.146Z,14.95
2018-11-07T23:03:53.496Z,15.83
2018-11-07T23:06:23.667Z,30.68
2018-11-07T23:08:53.957Z,15.38
2018-11-07T23:11:24.209Z,15.13
2018-11-07T23:13:54.450Z,14.68
2018-11-07T23:16:24.771Z,16.77
2018-11-07T23:18:55.384Z,16.37
2018-11-07T23:21:25.741Z,15.50
2018-11-07T23:23:56.414Z,19.07
2018-11-07T23:26:26.696Z,15.68
2018-11-07T23:28:57.310Z,20.50
2018-11-07T23:31:27.898Z,24.55
2018-11-07T23:33:58.364Z,20.97
2018-11-07T23:36:28.788Z,19.45
2018-11-07T23:38:59.123Z,20.82
2018-11-07T23:41:30.182Z,25.02
2018-11-07T23:44:00.568Z,16.02
2018-11-07T23:46:30.782Z,16.65
2018-11-07T23:49:01.052Z,18.07
2018-11-07T23:51:31.400Z,24.05
2018-11-07T23:54:01.693Z,14.50
2018-11-07T23:56:32.051Z,19.85
2018-11-07T23:59:02.382Z,16.32
